Regional Weather

 

KCRX - Corinth, Mississippi, USA
Distance from station: SW 29mi, 47km
Updated: Fri, 24-Jan-2020 4:15am CST
Overcast
Overcast
 Wind from WSW
Wind: WSW 6 mph , 9 km/h
Temperature: 43°F , 6°C
Wind Chill: 39°F , 4°C
Dew Point: 41°F , 5°C
Humidity: 93%
Barometer: 29.92 inHg , 1013.2 hPa
Clouds: Overcast
Visibility: 10 miles , 16 km
Cloud details: Partly cloudy 800 ft
Overcast 1300 ft
2020/01/24 10:15 KCRX 241015Z AUTO 24005KT 10SM SCT008 OVC013 06/05 A2992 RMK AO2
KMKL - Jackson, Tennessee, USA
Distance from station: NW 46mi, 73km
Updated: Fri, 24-Jan-2020 3:53am CST
Overcast
Overcast
 Wind from SW
Wind: SW 7 mph , 11 km/h
Temperature: 41°F , 5°C
Wind Chill: 36°F , 2°C
Dew Point: 39°F , 4°C
Humidity: 93%
Barometer: 29.91 inHg , 1012.9 hPa
Clouds: Overcast
Visibility: 10 miles , 16 km
Cloud details: Overcast 600 ft
2020/01/24 09:53 KMKL 240953Z AUTO 22006KT 10SM OVC006 05/04 A2991 RMK AO2 SLP129 T00500044 $
 
KMSL - Muscle Shoal, Alabama, USA
Distance from station: SE 49mi, 79km
Updated: Fri, 24-Jan-2020 4:30am CST
Overcast
Overcast
 Wind from WSW
Wind: WSW 7 mph , 11 km/h
Temperature: 46°F , 8°C
Wind Chill: 42°F , 6°C
Dew Point: 45°F , 7°C
Humidity: 93%
Barometer: 29.90 inHg , 1012.5 hPa
Clouds: Overcast
Visibility: 9 miles , 14 km
Cloud details: Few Clouds 1000 ft
Mostly cloudy 2000 ft
Overcast 3100 ft
2020/01/24 10:30 KMSL 241030Z AUTO 25006KT 9SM FEW010 BKN020 OVC031 08/07 A2990 RMK AO2 T00830072 $
KTUP - Tupelo, Mississippi, USA
Distance from station: SSW 72mi, 117km
Updated: Fri, 24-Jan-2020 3:53am CST
Overcast
Overcast
 Wind from WSW
Wind: WSW 6 mph , 9 km/h
Temperature: 43°F , 6°C
Wind Chill: 39°F , 4°C
Dew Point: 39°F , 4°C
Humidity: 87%
Barometer: 29.94 inHg , 1013.9 hPa
Clouds: Overcast
Visibility: 10 miles , 16 km
Cloud details: Partly cloudy 1000 ft
Overcast 1400 ft
2020/01/24 09:53 KTUP 240953Z AUTO 24005KT 10SM SCT010 OVC014 06/04 A2994 RMK AO2 SLP140 T00610039
 
KHSV - Huntsville, Alabama, USA
Distance from station: ESE 92mi, 148km
Updated: Fri, 24-Jan-2020 3:53am CST
Light rain, Overcast
Light rain, Overcast
 Wind from SE
Wind: SE 7 mph , 11 km/h
Temperature: 46°F , 8°C
Wind Chill: 42°F , 6°C
Dew Point: 45°F , 7°C
Humidity: 93%
Barometer: 29.90 inHg , 1012.5 hPa
Summary: Light rain
Clouds: Overcast
Visibility: 9 miles , 14 km
Cloud details: Mostly cloudy 600 ft
Overcast 1500 ft
2020/01/24 09:53 KHSV 240953Z AUTO 14006KT 9SM -RA BKN006 OVC015 08/07 A2990 RMK AO2 CIG 003V010 SLP127 P0005 T00780067
KBNA - Nashville, TN, USA
Distance from station: NE 97mi, 157km
Updated: Fri, 24-Jan-2020 3:53am CST
Overcast
Overcast
 Wind from S
Wind: S 13 mph , 20 km/h
Temperature: 46°F , 8°C
Wind Chill: 40°F , 4°C
Dew Point: 43°F , 6°C
Humidity: 87%
Barometer: 29.88 inHg , 1011.9 hPa
Clouds: Overcast
Visibility: 10 miles , 16 km
Cloud details: Mostly cloudy 800 ft
Overcast 1400 ft
2020/01/24 09:53 KBNA 240953Z 18011KT 10SM BKN008 OVC014 08/06 A2988 RMK AO2 RAE34 SLP120 P0001 T00830061
 
KMEM - Memphis, Tennessee, USA
Distance from station: W 99mi, 159km
Updated: Fri, 24-Jan-2020 4:32am CST
Overcast
Overcast
 Wind from SSW
Wind: SSW 9 mph , 15 km/h
Temperature: 39°F , 4°C
Wind Chill: 33°F , 1°C
Dew Point: 37°F , 3°C
Humidity: 93%
Barometer: 29.90 inHg , 1012.5 hPa
Clouds: Overcast
Visibility: 10 miles , 16 km
Cloud details: Few Clouds 600 ft
Mostly cloudy 3500 ft
Overcast 4300 ft
2020/01/24 10:32 KMEM 241032Z 21008KT 10SM FEW006 BKN035 OVC043 04/03 A2990 RMK AO2 T00440033
KCKV - Clarksville, TN, USA
Distance from station: NNE 99mi, 159km
Updated: Fri, 24-Jan-2020 4:22am CST
Mist, Overcast
Mist, Overcast
 Wind from SW
Wind: SW 3 mph , 6 km/h
Temperature: 45°F , 7°C
Dew Point: 43°F , 6°C
Humidity: 93%
Barometer: 29.87 inHg , 1011.5 hPa
Summary: Mist
Clouds: Overcast
Visibility: 6 miles , 10 km
Cloud details: Mostly cloudy 700 ft
Mostly cloudy 1200 ft
Overcast 1800 ft
2020/01/24 10:22 KCKV 241022Z AUTO 23003KT 6SM BR BKN007 BKN012 OVC018 07/06 A2987 RMK AO2 CIG 004V009 T00670061
 
KCHA - Chattanooga, TN, USA
Distance from station: E 165mi, 265km
Updated: Fri, 24-Jan-2020 3:59am CST
Light rain, Overcast
Light rain, Overcast
 Wind from S
Wind: S 7 mph , 11 km/h
Temperature: 43°F , 6°C
Wind Chill: 39°F , 4°C
Dew Point: 43°F , 6°C
Humidity: 100%
Barometer: 29.96 inHg , 1014.6 hPa
Summary: Light rain
Clouds: Overcast
Visibility: 7 miles , 11 km
Cloud details: Mostly cloudy 700 ft
Overcast 1300 ft
2020/01/24 09:59 KCHA 240959Z AUTO 19006KT 7SM -RA BKN007 OVC013 06/06 A2996 RMK AO2 RAB54 P0000 T00610056
KTYS - Knoxville, TN, USA
Distance from station: E 234mi, 377km
Updated: Fri, 24-Jan-2020 4:23am CST
Rain, Mist, Overcast
Rain, Mist, Overcast
 Wind from W
Wind: W 10 mph , 17 km/h
Temperature: 45°F , 7°C
Wind Chill: 40°F , 4°C
Dew Point: 43°F , 6°C
Humidity: 93%
Barometer: 29.93 inHg , 1013.5 hPa
Summary: Rain, Mist
Clouds: Overcast
Visibility: 3 miles , 5 km
Cloud details: Mostly cloudy 500 ft
Overcast 5000 ft
2020/01/24 10:23 KTYS 241023Z 28009KT 3SM RA BR BKN005 OVC050 07/06 A2993 RMK AO2 P0007 T00720056 $

Refresh Page for latest data.